createdAt,value
2022-10-23T00:01:13.981Z,17.10
2022-10-23T00:03:43.553Z,17.10
2022-10-23T00:06:11.031Z,17.10
2022-10-23T00:08:38.643Z,17.10
2022-10-23T00:11:08.006Z,17.00
2022-10-23T00:13:35.338Z,17.10
2022-10-23T00:16:02.848Z,17.00
2022-10-23T00:18:30.443Z,17.00
2022-10-23T00:20:59.475Z,17.00
2022-10-23T00:23:27.209Z,17.00
2022-10-23T00:25:54.750Z,17.00
2022-10-23T00:28:22.307Z,17.00
2022-10-23T00:30:49.920Z,17.00
2022-10-23T00:33:17.542Z,17.00
2022-10-23T00:35:45.144Z,17.00
2022-10-23T00:38:14.165Z,17.00
2022-10-23T00:40:41.769Z,17.00
2022-10-23T00:43:16.584Z,17.00
2022-10-23T00:45:44.171Z,17.00
2022-10-23T00:48:11.753Z,17.00
2022-10-23T00:50:39.263Z,17.00
2022-10-23T00:53:06.833Z,17.00
2022-10-23T00:55:35.913Z,17.00
2022-10-23T00:58:03.422Z,17.00
2022-10-23T01:00:41.200Z,17.00
2022-10-23T01:03:08.830Z,17.00
2022-10-23T01:05:40.863Z,17.00
2022-10-23T01:08:10.657Z,17.00
2022-10-23T01:10:43.025Z,17.00
2022-10-23T01:13:13.284Z,17.00
2022-10-23T01:15:43.752Z,17.00
2022-10-23T01:18:16.090Z,17.00
2022-10-23T01:20:44.785Z,17.00
2022-10-23T01:23:25.433Z,17.00
2022-10-23T01:26:22.211Z,17.00
2022-10-23T01:28:52.502Z,17.00
2022-10-23T01:31:23.444Z,17.00
2022-10-23T01:33:54.081Z,17.00
2022-10-23T01:36:21.765Z,17.00
2022-10-23T01:38:52.591Z,17.00
2022-10-23T01:41:23.213Z,17.00
2022-10-23T01:43:54.570Z,17.00
2022-10-23T01:46:22.116Z,17.00
2022-10-23T01:48:50.995Z,17.00
2022-10-23T01:51:18.710Z,17.00
2022-10-23T01:53:47.618Z,17.00
2022-10-23T01:56:17.546Z,17.00
2022-10-23T01:58:47.570Z,16.90
2022-10-23T02:01:16.701Z,16.90
2022-10-23T02:03:44.452Z,17.00
2022-10-23T02:06:12.043Z,17.00
2022-10-23T02:08:39.610Z,17.00
2022-10-23T02:11:09.261Z,17.00
2022-10-23T02:13:41.125Z,16.90
2022-10-23T02:16:12.044Z,17.00
2022-10-23T02:18:44.672Z,17.00
2022-10-23T02:21:14.283Z,16.90
2022-10-23T02:23:44.953Z,16.90
2022-10-23T02:26:16.198Z,16.90
2022-10-23T02:28:45.764Z,16.90
2022-10-23T02:31:14.646Z,16.90
2022-10-23T02:33:43.738Z,16.90
2022-10-23T02:36:11.302Z,16.90
2022-10-23T02:38:39.510Z,16.90
2022-10-23T02:41:37.104Z,16.90
2022-10-23T02:44:17.567Z,16.90
2022-10-23T02:46:50.394Z,16.90
2022-10-23T02:49:23.726Z,16.90
2022-10-23T02:51:57.537Z,16.90
2022-10-23T02:54:32.219Z,16.90
2022-10-23T02:57:02.403Z,16.90
2022-10-23T02:59:32.449Z,16.90
2022-10-23T03:02:03.107Z,16.90
2022-10-23T03:04:32.684Z,16.90
2022-10-23T03:07:00.230Z,16.90
2022-10-23T03:09:27.758Z,16.90
2022-10-23T03:11:55.319Z,16.90
2022-10-23T03:14:22.732Z,16.90
2022-10-23T03:16:50.218Z,16.90
2022-10-23T03:19:17.847Z,16.90
2022-10-23T03:21:46.857Z,16.90
2022-10-23T03:24:14.414Z,16.90
2022-10-23T03:26:41.986Z,16.90
2022-10-23T03:29:09.564Z,16.90
2022-10-23T03:31:37.162Z,16.90
2022-10-23T03:34:07.507Z,16.90
2022-10-23T03:36:36.022Z,16.90
2022-10-23T03:39:05.111Z,16.90
2022-10-23T03:41:32.651Z,16.90
2022-10-23T03:44:00.327Z,16.90
2022-10-23T03:46:27.850Z,16.90
2022-10-23T03:48:55.457Z,16.80
2022-10-23T03:51:22.990Z,16.80
2022-10-23T03:53:50.489Z,16.80
2022-10-23T03:56:19.578Z,16.90
2022-10-23T03:58:47.149Z,16.80
2022-10-23T04:01:14.780Z,16.90
2022-10-23T04:03:42.278Z,16.90
2022-10-23T04:06:09.808Z,16.90
2022-10-23T04:08:37.308Z,16.80
2022-10-23T04:11:05.029Z,16.80
2022-10-23T04:13:33.994Z,16.80
2022-10-23T04:16:01.560Z,16.90
2022-10-23T04:18:29.108Z,16.80
2022-10-23T04:20:56.651Z,16.90
2022-10-23T04:23:24.127Z,16.80
2022-10-23T04:25:51.768Z,16.80
2022-10-23T04:28:19.368Z,16.80
2022-10-23T04:30:48.314Z,16.80
2022-10-23T04:33:15.772Z,16.80
2022-10-23T04:35:43.300Z,16.80
2022-10-23T04:38:10.885Z,16.80
2022-10-23T04:40:38.369Z,16.80
2022-10-23T04:43:05.882Z,16.80
2022-10-23T04:45:33.355Z,16.80
2022-10-23T04:48:02.286Z,16.80
2022-10-23T04:50:29.833Z,16.80
2022-10-23T04:52:57.675Z,16.80
2022-10-23T04:55:25.314Z,16.80
2022-10-23T04:57:53.034Z,16.80
2022-10-23T05:00:20.547Z,16.80
2022-10-23T05:02:48.031Z,16.80
2022-10-23T05:05:17.175Z,16.80
2022-10-23T05:07:44.916Z,16.80
2022-10-23T05:10:13.125Z,16.80
2022-10-23T05:12:40.774Z,16.80
2022-10-23T05:15:08.758Z,16.80
2022-10-23T05:17:37.096Z,16.80
2022-10-23T05:20:06.130Z,16.80
2022-10-23T05:22:36.261Z,16.80
2022-10-23T05:25:04.612Z,16.80
2022-10-23T05:27:32.222Z,16.80
2022-10-23T05:29:59.819Z,16.80
2022-10-23T05:32:29.072Z,16.90
2022-10-23T05:34:56.570Z,16.90
2022-10-23T05:37:24.103Z,16.80
2022-10-23T05:39:53.113Z,16.80
2022-10-23T05:42:20.662Z,16.80
2022-10-23T05:44:48.213Z,16.80
2022-10-23T05:47:15.716Z,16.80
2022-10-23T05:49:43.117Z,16.80
2022-10-23T05:52:11.793Z,16.80
2022-10-23T05:54:39.466Z,16.80
2022-10-23T05:57:08.443Z,16.80
2022-10-23T05:59:36.072Z,16.80
2022-10-23T06:02:03.625Z,16.80
2022-10-23T06:04:31.298Z,16.80
2022-10-23T06:06:58.881Z,16.80
2022-10-23T06:09:26.355Z,16.80
2022-10-23T06:11:53.983Z,16.90
2022-10-23T06:14:22.926Z,16.80
2022-10-23T06:16:50.540Z,16.80
2022-10-23T06:19:18.072Z,16.80
2022-10-23T06:21:45.585Z,16.80
2022-10-23T06:24:13.093Z,16.80
2022-10-23T06:26:40.517Z,16.80
2022-10-23T06:29:08.053Z,16.80
2022-10-23T06:31:37.018Z,16.80
2022-10-23T06:34:04.613Z,16.80
2022-10-23T06:36:32.084Z,16.80
2022-10-23T06:41:32.071Z,16.80
2022-10-23T06:43:59.542Z,16.80
2022-10-23T06:46:27.277Z,16.80
2022-10-23T06:48:56.253Z,16.80
2022-10-23T06:51:23.844Z,16.80
2022-10-23T06:53:51.437Z,16.80
2022-10-23T06:56:18.959Z,16.80
2022-10-23T06:58:46.543Z,16.80
2022-10-23T07:01:14.379Z,16.80
2022-10-23T07:03:42.311Z,16.80
2022-10-23T07:06:11.433Z,16.80
2022-10-23T07:08:38.981Z,16.80
2022-10-23T07:11:07.309Z,16.80
2022-10-23T07:13:34.996Z,16.80
2022-10-23T07:16:11.081Z,16.80
2022-10-23T07:18:38.547Z,16.80
2022-10-23T07:21:06.430Z,16.80
2022-10-23T07:23:35.498Z,16.80
2022-10-23T07:26:07.292Z,16.80
2022-10-23T07:28:34.881Z,16.80
2022-10-23T07:31:02.392Z,16.80
2022-10-23T07:33:29.965Z,16.80
2022-10-23T07:35:57.418Z,16.80
2022-10-23T07:38:25.015Z,16.80
2022-10-23T07:40:54.048Z,16.80
2022-10-23T07:43:21.668Z,16.80
2022-10-23T07:45:49.369Z,16.80
2022-10-23T07:48:16.967Z,16.80
2022-10-23T07:50:44.479Z,16.80
2022-10-23T07:53:15.373Z,16.80
2022-10-23T07:55:42.930Z,16.80
2022-10-23T07:58:11.907Z,16.80
2022-10-23T08:00:40.513Z,16.80
2022-10-23T08:03:08.091Z,16.80
2022-10-23T08:05:35.687Z,16.80
2022-10-23T08:08:03.348Z,16.80
2022-10-23T08:10:30.895Z,16.80
2022-10-23T08:12:58.422Z,16.80
2022-10-23T08:15:27.468Z,16.80
2022-10-23T08:17:54.934Z,16.80
2022-10-23T08:20:22.413Z,16.80
2022-10-23T08:22:51.162Z,16.90
2022-10-23T08:25:21.885Z,16.80
2022-10-23T08:27:52.527Z,16.80
2022-10-23T08:30:20.104Z,16.80
2022-10-23T08:32:49.159Z,16.80
2022-10-23T08:35:16.887Z,16.80
2022-10-23T08:37:44.620Z,16.80
2022-10-23T08:40:15.782Z,16.80
2022-10-23T08:42:43.597Z,16.80
2022-10-23T08:45:21.147Z,16.80
2022-10-23T08:47:51.562Z,16.80
2022-10-23T08:50:24.413Z,16.80
2022-10-23T08:52:53.940Z,16.80
2022-10-23T08:55:42.573Z,16.80
2022-10-23T08:58:15.236Z,16.80
2022-10-23T09:00:43.102Z,16.80
2022-10-23T09:03:12.403Z,16.80
2022-10-23T09:05:47.564Z,16.80
2022-10-23T09:08:26.283Z,16.80
2022-10-23T09:11:02.533Z,16.80
2022-10-23T09:14:18.398Z,16.90
2022-10-23T09:16:52.282Z,16.90
2022-10-23T09:19:22.855Z,16.80
2022-10-23T09:21:50.427Z,16.70
2022-10-23T09:24:20.717Z,16.80
2022-10-23T09:26:49.842Z,16.80
2022-10-23T09:29:22.411Z,16.80
2022-10-23T09:31:50.995Z,16.80
2022-10-23T09:34:22.635Z,16.80
2022-10-23T09:36:51.276Z,16.80
2022-10-23T09:39:29.540Z,16.80
2022-10-23T09:41:57.238Z,16.90
2022-10-23T09:44:26.099Z,16.80
2022-10-23T09:46:54.983Z,16.90
2022-10-23T09:49:25.481Z,16.90
2022-10-23T09:51:58.938Z,16.90
2022-10-23T09:54:26.553Z,16.90
2022-10-23T09:56:54.497Z,16.90
2022-10-23T09:59:25.093Z,16.90
2022-10-23T10:01:54.403Z,16.90
2022-10-23T10:04:36.704Z,16.90
2022-10-23T10:07:05.713Z,17.00
2022-10-23T10:09:33.288Z,16.90
2022-10-23T10:12:12.606Z,16.90
2022-10-23T10:14:50.016Z,17.00
2022-10-23T10:17:22.028Z,17.00
2022-10-23T10:20:10.868Z,16.90
2022-10-23T10:22:41.210Z,17.00
2022-10-23T10:25:11.860Z,17.00
2022-10-23T10:27:46.172Z,17.00
2022-10-23T10:30:16.048Z,17.00
2022-10-23T10:32:47.546Z,17.00
2022-10-23T10:35:25.778Z,17.00
2022-10-23T10:38:02.224Z,17.00
2022-10-23T10:40:32.187Z,17.00
2022-10-23T10:43:14.276Z,17.00
2022-10-23T10:45:43.680Z,17.00
2022-10-23T10:48:21.414Z,17.00
2022-10-23T10:50:53.044Z,17.00
2022-10-23T10:53:24.936Z,17.00
2022-10-23T10:55:54.493Z,17.00
2022-10-23T10:58:25.254Z,17.00
2022-10-23T11:00:55.946Z,17.00
2022-10-23T11:03:28.896Z,17.00
2022-10-23T11:08:44.477Z,17.00
2022-10-23T11:11:27.538Z,17.00
2022-10-23T11:13:55.103Z,17.00
2022-10-23T11:16:24.928Z,17.00
2022-10-23T11:18:57.728Z,17.00
2022-10-23T11:21:30.698Z,17.10
2022-10-23T11:24:42.254Z,17.10
2022-10-23T11:28:03.350Z,17.10
2022-10-23T11:30:35.197Z,17.10
2022-10-23T11:33:35.384Z,17.00
2022-10-23T11:36:09.126Z,17.10
2022-10-23T11:38:38.495Z,17.10
2022-10-23T11:41:07.571Z,17.10
2022-10-23T11:43:47.090Z,17.10
2022-10-23T11:46:14.665Z,17.10
2022-10-23T11:48:43.042Z,17.10
2022-10-23T11:51:28.029Z,17.10
2022-10-23T11:54:08.048Z,17.20
2022-10-23T11:56:35.577Z,17.20
2022-10-23T11:59:21.938Z,17.10
2022-10-23T12:01:49.647Z,17.20
2022-10-23T12:04:21.385Z,17.20
2022-10-23T12:06:50.173Z,17.20
2022-10-23T12:09:27.987Z,17.10
2022-10-23T12:12:26.430Z,17.20
2022-10-23T12:14:54.078Z,17.20
2022-10-23T12:17:32.149Z,17.20
2022-10-23T12:20:18.694Z,17.20
2022-10-23T12:22:49.825Z,17.20
2022-10-23T12:25:23.356Z,17.20
2022-10-23T12:27:53.159Z,17.30
2022-10-23T12:30:22.855Z,17.30
2022-10-23T12:33:25.021Z,17.30
2022-10-23T12:36:32.937Z,17.30
2022-10-23T12:39:00.495Z,17.30
2022-10-23T12:41:29.861Z,17.30
2022-10-23T12:43:59.577Z,17.30
2022-10-23T12:46:33.220Z,17.30
2022-10-23T12:49:01.857Z,17.30
2022-10-23T12:51:30.796Z,17.30
2022-10-23T12:53:58.863Z,17.30
2022-10-23T12:56:28.548Z,17.30
2022-10-23T12:59:00.089Z,17.40
2022-10-23T13:01:28.961Z,17.30
2022-10-23T13:03:58.833Z,17.30
2022-10-23T13:06:26.771Z,17.40
2022-10-23T13:08:54.364Z,17.40
2022-10-23T13:11:21.902Z,17.30
2022-10-23T13:13:49.404Z,17.40
2022-10-23T13:16:19.698Z,17.40
2022-10-23T13:18:47.248Z,17.40
2022-10-23T13:21:18.077Z,17.40
2022-10-23T13:23:45.632Z,17.40
2022-10-23T13:26:31.912Z,17.40
2022-10-23T13:28:59.668Z,17.40
2022-10-23T13:31:31.051Z,17.40
2022-10-23T13:34:07.038Z,17.40
2022-10-23T13:36:36.227Z,17.50
2022-10-23T13:39:05.108Z,17.50
2022-10-23T13:41:36.550Z,17.50
2022-10-23T13:44:04.232Z,17.50
2022-10-23T13:46:33.284Z,17.50
2022-10-23T13:49:00.835Z,17.50
2022-10-23T13:51:29.099Z,17.50
2022-10-23T13:53:57.472Z,17.50
2022-10-23T13:56:26.449Z,17.50
2022-10-23T13:58:54.514Z,17.50
2022-10-23T14:01:23.486Z,17.40
2022-10-23T14:03:52.878Z,17.50
2022-10-23T14:06:20.536Z,17.50
2022-10-23T14:08:48.187Z,17.50
2022-10-23T14:11:16.663Z,17.50
2022-10-23T14:13:44.388Z,17.50
2022-10-23T14:16:12.878Z,17.50
2022-10-23T14:18:40.495Z,17.50
2022-10-23T14:21:11.246Z,17.50
2022-10-23T14:23:38.780Z,17.50
2022-10-23T14:26:07.434Z,17.50
2022-10-23T14:28:34.971Z,17.50
2022-10-23T14:31:04.404Z,17.50
2022-10-23T14:33:32.011Z,17.50
2022-10-23T14:35:59.554Z,17.50
2022-10-23T14:38:28.614Z,17.50
2022-10-23T14:40:56.309Z,17.50
2022-10-23T14:43:24.041Z,17.50
2022-10-23T14:45:51.591Z,17.60
2022-10-23T14:48:19.209Z,17.60
2022-10-23T14:50:47.619Z,17.60
2022-10-23T14:53:15.201Z,17.70
2022-10-23T14:55:44.248Z,17.70
2022-10-23T14:58:11.893Z,17.70
2022-10-23T15:00:39.408Z,17.70
2022-10-23T15:03:06.981Z,17.80
2022-10-23T15:05:34.544Z,17.80
2022-10-23T15:08:02.085Z,17.80
2022-10-23T15:10:29.675Z,17.90
2022-10-23T15:12:58.716Z,17.90
2022-10-23T15:15:26.293Z,17.90
2022-10-23T15:17:53.793Z,17.90
2022-10-23T15:20:21.337Z,18.00
2022-10-23T15:22:48.921Z,18.00
2022-10-23T15:25:18.039Z,18.00
2022-10-23T15:27:46.049Z,18.00
2022-10-23T15:30:15.401Z,18.10
2022-10-23T15:32:42.940Z,18.10
2022-10-23T15:35:10.538Z,18.10
2022-10-23T15:37:38.107Z,18.20
2022-10-23T15:40:06.565Z,18.20
2022-10-23T15:42:34.110Z,18.20
2022-10-23T15:45:01.654Z,18.20
2022-10-23T15:47:30.714Z,18.20
2022-10-23T15:49:58.263Z,18.20
2022-10-23T15:52:25.828Z,18.20
2022-10-23T15:54:53.510Z,18.20
2022-10-23T15:57:21.109Z,18.20
2022-10-23T15:59:48.733Z,18.20
2022-10-23T16:02:16.502Z,18.20
2022-10-23T16:04:45.633Z,18.10
2022-10-23T16:07:13.180Z,18.20
2022-10-23T16:09:40.767Z,18.10
2022-10-23T16:12:08.870Z,18.20
2022-10-23T16:14:36.494Z,18.20
2022-10-23T16:17:04.133Z,18.10
2022-10-23T16:19:31.828Z,18.10
2022-10-23T16:22:00.879Z,18.10
2022-10-23T16:24:28.515Z,18.10
2022-10-23T16:26:56.033Z,18.10
2022-10-23T16:29:23.727Z,18.10
2022-10-23T16:31:51.469Z,18.10
2022-10-23T16:34:18.973Z,18.10
2022-10-23T16:36:46.739Z,18.10
2022-10-23T16:39:17.045Z,18.10
2022-10-23T16:41:44.722Z,18.10
2022-10-23T16:44:12.293Z,18.10
2022-10-23T16:46:39.826Z,18.10
2022-10-23T16:49:07.356Z,18.10
2022-10-23T16:51:35.086Z,18.10
2022-10-23T16:54:02.656Z,18.10
2022-10-23T16:56:31.948Z,18.10
2022-10-23T17:01:32.294Z,18.10
2022-10-23T17:04:00.172Z,18.10
2022-10-23T17:06:28.691Z,18.10
2022-10-23T17:08:58.772Z,18.10
2022-10-23T17:11:26.856Z,18.10
2022-10-23T17:13:59.207Z,18.10
2022-10-23T17:16:28.293Z,18.10
2022-10-23T17:18:56.126Z,18.10
2022-10-23T17:21:23.931Z,18.10
2022-10-23T17:23:51.550Z,18.10
2022-10-23T17:26:21.082Z,18.10
2022-10-23T17:28:48.675Z,18.10
2022-10-23T17:31:18.639Z,18.10
2022-10-23T17:33:46.314Z,18.10
2022-10-23T17:36:14.577Z,18.00
2022-10-23T17:38:42.242Z,18.00
2022-10-23T17:41:11.118Z,18.00
2022-10-23T17:43:38.660Z,18.00
2022-10-23T17:46:06.980Z,18.00
2022-10-23T17:48:36.058Z,18.00
2022-10-23T17:51:04.701Z,18.00
2022-10-23T17:53:32.238Z,18.00
2022-10-23T17:56:02.177Z,18.00
2022-10-23T17:58:29.808Z,18.10
2022-10-23T18:00:57.689Z,18.00
2022-10-23T18:03:25.441Z,18.00
2022-10-23T18:05:54.565Z,18.00
2022-10-23T18:08:22.161Z,18.00
2022-10-23T18:10:49.757Z,18.00
2022-10-23T18:13:17.339Z,18.00
2022-10-23T18:15:44.950Z,18.00
2022-10-23T18:18:12.605Z,18.00
2022-10-23T18:20:40.133Z,18.00
2022-10-23T18:23:09.216Z,18.00
2022-10-23T18:25:36.786Z,18.00
2022-10-23T18:28:04.661Z,18.00
2022-10-23T18:30:32.453Z,18.00
2022-10-23T18:33:00.063Z,18.00
2022-10-23T18:35:27.710Z,18.00
2022-10-23T18:37:55.235Z,18.00
2022-10-23T18:40:27.116Z,18.00
2022-10-23T18:42:55.885Z,18.00
2022-10-23T18:45:23.475Z,17.90
2022-10-23T18:47:51.093Z,17.90
2022-10-23T18:50:18.815Z,17.90
2022-10-23T18:52:46.592Z,17.90
2022-10-23T18:55:14.275Z,17.90
2022-10-23T18:57:43.704Z,17.90
2022-10-23T19:00:13.040Z,17.90
2022-10-23T19:02:41.002Z,17.90
2022-10-23T19:05:09.076Z,17.90
2022-10-23T19:07:36.619Z,17.90
2022-10-23T19:10:04.546Z,17.90
2022-10-23T19:12:32.299Z,17.90
2022-10-23T19:15:01.377Z,17.90
2022-10-23T19:17:30.192Z,17.90
2022-10-23T19:20:02.199Z,17.90
2022-10-23T19:22:29.774Z,17.80
2022-10-23T19:24:59.008Z,17.80
2022-10-23T19:27:26.595Z,17.80
2022-10-23T19:29:54.173Z,17.80
2022-10-23T19:32:23.264Z,17.80
2022-10-23T19:34:50.760Z,17.80
2022-10-23T19:37:18.269Z,17.80
2022-10-23T19:39:45.854Z,17.80
2022-10-23T19:42:13.458Z,17.80
2022-10-23T19:44:41.060Z,17.80
2022-10-23T19:47:08.657Z,17.80
2022-10-23T19:49:37.950Z,17.80
2022-10-23T19:52:05.669Z,17.80
2022-10-23T19:54:33.217Z,17.80
2022-10-23T19:57:00.890Z,17.80
2022-10-23T19:59:28.528Z,17.70
2022-10-23T20:01:56.206Z,17.80
2022-10-23T20:04:23.897Z,17.70
2022-10-23T20:06:52.942Z,17.70
2022-10-23T20:09:20.565Z,17.70
2022-10-23T20:11:48.173Z,17.70
2022-10-23T20:14:15.902Z,17.70
2022-10-23T20:16:44.330Z,17.70
2022-10-23T20:19:13.279Z,17.70
2022-10-23T20:21:41.697Z,17.70
2022-10-23T20:24:11.294Z,17.70
2022-10-23T20:26:39.983Z,17.70
2022-10-23T20:29:07.553Z,17.70
2022-10-23T20:31:35.408Z,17.70
2022-10-23T20:34:03.067Z,17.70
2022-10-23T20:36:32.052Z,17.70
2022-10-23T20:39:01.549Z,17.70
2022-10-23T20:41:30.761Z,17.70
2022-10-23T20:43:58.216Z,17.60
2022-10-23T20:46:25.832Z,17.70
2022-10-23T20:48:53.475Z,17.70
2022-10-23T20:51:22.355Z,17.60
2022-10-23T20:53:49.951Z,17.60
2022-10-23T20:56:18.587Z,17.60
2022-10-23T20:58:50.328Z,17.60
2022-10-23T21:01:18.297Z,17.60
2022-10-23T21:03:50.143Z,17.60
2022-10-23T21:06:18.172Z,17.60
2022-10-23T21:08:46.043Z,17.60
2022-10-23T21:11:14.220Z,17.60
2022-10-23T21:13:41.931Z,17.50
2022-10-23T21:16:14.535Z,17.50
2022-10-23T21:18:46.050Z,17.60
2022-10-23T21:21:14.365Z,17.50
2022-10-23T21:23:41.928Z,17.50
2022-10-23T21:26:09.445Z,17.50
2022-10-23T21:28:37.098Z,17.60
2022-10-23T21:31:04.914Z,17.50
2022-10-23T21:33:34.101Z,17.50
2022-10-23T21:36:13.698Z,17.50
2022-10-23T21:38:42.004Z,17.50
2022-10-23T21:41:10.349Z,17.50
2022-10-23T21:43:37.968Z,17.50
2022-10-23T21:46:05.758Z,17.50
2022-10-23T21:48:34.811Z,17.40
2022-10-23T21:51:02.446Z,17.50
2022-10-23T21:53:30.128Z,17.40
2022-10-23T21:56:00.659Z,17.40
2022-10-23T21:58:28.222Z,17.40
2022-10-23T22:00:55.796Z,17.40
2022-10-23T22:03:23.382Z,17.40
2022-10-23T22:05:52.400Z,17.40
2022-10-23T22:08:20.003Z,17.40
2022-10-23T22:10:47.632Z,17.40
2022-10-23T22:13:15.197Z,17.40
2022-10-23T22:18:10.366Z,17.40
2022-10-23T22:20:37.889Z,17.30
2022-10-23T22:23:06.913Z,17.30
2022-10-23T22:25:34.380Z,17.30
2022-10-23T22:28:01.914Z,17.30
2022-10-23T22:30:29.557Z,17.30
2022-10-23T22:32:57.130Z,17.30
2022-10-23T22:35:25.223Z,17.30
2022-10-23T22:37:52.828Z,17.30
2022-10-23T22:40:21.841Z,17.30
2022-10-23T22:42:49.399Z,17.30
2022-10-23T22:45:17.142Z,17.20
2022-10-23T22:47:44.839Z,17.20
2022-10-23T22:50:12.456Z,17.20
2022-10-23T22:52:39.964Z,17.20
2022-10-23T22:55:09.323Z,17.20
2022-10-23T22:57:38.342Z,17.20
2022-10-23T23:00:07.593Z,17.20
2022-10-23T23:02:35.192Z,17.20
2022-10-23T23:05:02.666Z,17.20
2022-10-23T23:07:30.197Z,17.20
2022-10-23T23:09:57.744Z,17.10
2022-10-23T23:12:25.385Z,17.20
2022-10-23T23:14:54.394Z,17.10
2022-10-23T23:17:21.945Z,17.20
2022-10-23T23:19:49.490Z,17.20
2022-10-23T23:22:17.067Z,17.10
2022-10-23T23:24:44.570Z,17.10
2022-10-23T23:27:12.148Z,17.10
2022-10-23T23:29:39.792Z,17.10
2022-10-23T23:32:10.170Z,17.10
2022-10-23T23:34:37.701Z,17.10
2022-10-23T23:37:05.259Z,17.10
2022-10-23T23:39:32.818Z,17.10
2022-10-23T23:42:00.396Z,17.10
2022-10-23T23:44:27.942Z,17.10
2022-10-23T23:46:55.509Z,17.10
2022-10-23T23:49:24.756Z,17.10
2022-10-23T23:51:52.347Z,17.10
2022-10-23T23:54:19.865Z,17.10
2022-10-23T23:56:47.411Z,17.10
2022-10-23T23:59:14.916Z,17.10
